Time;durP1;ratioP1;P1;durP2;ratioP2;P2;SDS_P1;SDS_P2;PMS_P1;PMS_P2;Temp;Humidity;BMP_temperature;BMP_pressure;BME280_temperature;BME280_humidity;BME280_pressure;Samples;Min_cycle;Max_cycle;Signal;HPM_P1;HPM_P2
2023/01/02 00:01:30;;;;;;;20.13;7.65;;;13.00;99.90;;;;;;5016832;28;20077;-73
2023/01/02 00:03:56;;;;;;;19.70;5.95;;;13.00;99.90;;;;;;5001098;28;20030;-73
2023/01/02 00:06:23;;;;;;;20.92;6.35;;;13.00;99.90;;;;;;4999035;28;20084;-72
2023/01/02 00:08:49;;;;;;;27.95;8.60;;;13.00;99.90;;;;;;5017257;28;20398;-73
2023/01/02 00:11:15;;;;;;;18.95;7.25;;;13.00;99.90;;;;;;4999227;28;20659;-73
2023/01/02 00:13:40;;;;;;;27.13;6.30;;;13.00;99.90;;;;;;5014163;28;20030;-73
2023/01/02 00:16:07;;;;;;;28.17;7.30;;;13.00;99.90;;;;;;4998887;28;20046;-74
2023/01/02 00:18:32;;;;;;;25.90;7.18;;;13.00;99.90;;;;;;4993883;28;20037;-73
2023/01/02 00:21:05;;;;;;;25.50;7.45;;;13.00;99.90;;;;;;5000058;28;20022;-73
2023/01/02 00:23:31;;;;;;;19.13;6.15;;;13.00;99.90;;;;;;5011917;28;20113;-72
2023/01/02 00:25:58;;;;;;;32.42;6.68;;;13.00;99.90;;;;;;5017453;28;20134;-72
2023/01/02 00:28:25;;;;;;;26.02;7.07;;;13.00;99.90;;;;;;5012215;28;20026;-72
2023/01/02 00:30:51;;;;;;;24.88;6.70;;;13.00;99.90;;;;;;5000728;28;20514;-74
2023/01/02 00:33:16;;;;;;;27.27;7.50;;;13.00;99.90;;;;;;5008052;28;20034;-73
2023/01/02 00:35:42;;;;;;;17.20;4.78;;;12.90;99.90;;;;;;5018369;28;20026;-73
2023/01/02 00:38:08;;;;;;;17.77;6.45;;;13.00;99.90;;;;;;5012988;28;20083;-72
2023/01/02 00:40:34;;;;;;;12.02;5.82;;;13.00;99.90;;;;;;5018186;28;20026;-72
2023/01/02 00:43:00;;;;;;;24.10;6.88;;;13.00;99.90;;;;;;5014756;28;20026;-72
2023/01/02 00:45:26;;;;;;;20.10;6.25;;;13.00;99.90;;;;;;4999555;28;20029;-72
2023/01/02 00:47:52;;;;;;;26.38;7.57;;;13.00;99.90;;;;;;5013223;28;20080;-72
2023/01/02 00:50:19;;;;;;;26.08;8.20;;;13.00;99.90;;;;;;5018008;28;20044;-72
2023/01/02 00:52:45;;;;;;;16.15;5.82;;;13.10;99.90;;;;;;5014129;28;20030;-72
2023/01/02 00:55:11;;;;;;;21.48;6.60;;;13.00;99.90;;;;;;5016345;28;20390;-72
2023/01/02 00:57:37;;;;;;;24.58;7.35;;;13.00;99.90;;;;;;5013611;28;20041;-72
2023/01/02 01:00:04;;;;;;;23.65;7.22;;;13.00;99.90;;;;;;4999466;28;20025;-72
2023/01/02 01:02:30;;;;;;;19.60;5.72;;;13.00;99.90;;;;;;5013453;28;20026;-73
2023/01/02 01:04:56;;;;;;;18.35;6.30;;;13.00;99.90;;;;;;5017210;28;20022;-73
2023/01/02 01:07:22;;;;;;;18.52;6.82;;;13.00;99.90;;;;;;5011722;28;20023;-74
2023/01/02 01:09:47;;;;;;;16.25;6.13;;;12.90;99.90;;;;;;5013925;28;20052;-73
2023/01/02 01:12:13;;;;;;;25.75;6.57;;;12.90;99.90;;;;;;5011311;28;20022;-73
2023/01/02 01:14:39;;;;;;;27.60;7.20;;;12.90;99.90;;;;;;5017576;28;20481;-73
2023/01/02 01:17:05;;;;;;;17.17;6.50;;;12.90;99.90;;;;;;5012038;28;20038;-73
2023/01/02 01:19:33;;;;;;;26.20;6.28;;;12.90;99.90;;;;;;5017711;28;20029;-74
2023/01/02 01:21:59;;;;;;;20.67;6.35;;;12.90;99.90;;;;;;4992748;28;20039;-73
2023/01/02 01:24:26;;;;;;;20.55;6.55;;;12.90;99.90;;;;;;5017307;28;20894;-73
2023/01/02 01:26:52;;;;;;;20.05;5.68;;;12.90;99.90;;;;;;5010986;28;20054;-73
2023/01/02 01:29:18;;;;;;;21.77;6.38;;;13.00;99.90;;;;;;5013242;28;20018;-72
2023/01/02 01:31:44;;;;;;;23.80;6.53;;;13.00;99.90;;;;;;4994911;28;20030;-73
2023/01/02 01:34:13;;;;;;;25.20;6.15;;;13.00;99.90;;;;;;5008798;28;21063;-74
2023/01/02 01:36:39;;;;;;;20.90;6.97;;;12.90;99.90;;;;;;5012829;28;20073;-72
2023/01/02 01:39:05;;;;;;;18.88;6.68;;;12.90;99.90;;;;;;5015720;28;20018;-75
2023/01/02 01:41:31;;;;;;;23.63;7.85;;;12.90;99.90;;;;;;4995551;28;20035;-74
2023/01/02 01:44:00;;;;;;;24.58;7.20;;;12.90;99.90;;;;;;4999414;28;20033;-74
2023/01/02 01:46:38;;;;;;;19.83;6.45;;;12.90;99.90;;;;;;4995640;28;20041;-73
2023/01/02 01:49:19;;;;;;;19.08;6.22;;;12.90;99.90;;;;;;4998071;28;20018;-74
2023/01/02 01:51:51;;;;;;;25.92;6.10;;;12.90;99.90;;;;;;5012532;28;20031;-72
2023/01/02 01:54:26;;;;;;;21.75;7.13;;;12.90;99.90;;;;;;5014624;28;20161;-74
2023/01/02 01:56:57;;;;;;;27.38;7.15;;;13.00;99.90;;;;;;5011905;28;20598;-72
2023/01/02 01:59:24;;;;;;;17.80;6.80;;;13.00;99.90;;;;;;5008536;28;20026;-73
2023/01/02 02:01:50;;;;;;;16.50;6.78;;;13.00;99.90;;;;;;5012940;28;20393;-72
2023/01/02 02:04:18;;;;;;;18.45;7.97;;;12.90;99.90;;;;;;4998568;28;20022;-72
2023/01/02 02:06:44;;;;;;;19.17;6.05;;;12.90;99.90;;;;;;5010742;28;20040;-74
2023/01/02 02:09:19;;;;;;;19.95;5.93;;;12.90;99.90;;;;;;5012083;28;20495;-73
2023/01/02 02:11:46;;;;;;;26.83;7.85;;;12.90;99.90;;;;;;4994596;28;20065;-72
2023/01/02 02:14:12;;;;;;;19.23;6.40;;;12.90;99.90;;;;;;4984276;28;20023;-72
2023/01/02 02:17:18;;;;;;;22.85;7.07;;;12.90;99.90;;;;;;5013560;28;20409;-71
2023/01/02 02:20:04;;;;;;;17.58;6.47;;;12.90;99.90;;;;;;5014829;28;20430;-72
2023/01/02 02:22:45;;;;;;;25.33;7.68;;;12.90;99.90;;;;;;5009652;28;20030;-73
2023/01/02 02:25:23;;;;;;;;;;;12.90;99.90;;;;;;5017036;28;20124;-73
2023/01/02 02:28:10;;;;;;;19.60;6.75;;;12.90;99.90;;;;;;4992452;28;19913;-73
2023/01/02 02:30:51;;;;;;;18.45;6.00;;;12.90;99.90;;;;;;5010761;28;20037;-72
2023/01/02 02:33:42;;;;;;;23.67;7.38;;;12.80;99.90;;;;;;4987968;28;20053;-73
2023/01/02 02:36:27;;;;;;;20.63;6.47;;;12.80;99.90;;;;;;4996929;28;20034;-72
2023/01/02 02:39:10;;;;;;;28.83;6.75;;;12.80;99.90;;;;;;5013292;28;20100;-73
2023/01/02 02:42:01;;;;;;;22.98;6.03;;;12.80;99.90;;;;;;5017025;28;20030;-73
2023/01/02 02:44:45;;;;;;;22.90;6.70;;;12.90;99.90;;;;;;5010330;28;20104;-73
2023/01/02 02:47:26;;;;;;;23.52;7.47;;;12.90;99.90;;;;;;5016177;28;20018;-73
2023/01/02 02:50:04;;;;;;;19.80;6.07;;;12.90;99.90;;;;;;5017084;28;20033;-72
2023/01/02 02:52:57;;;;;;;18.25;6.55;;;12.90;99.90;;;;;;4995439;28;20113;-72
2023/01/02 02:55:34;;;;;;;24.75;7.50;;;13.00;99.90;;;;;;5002536;28;20095;-72
2023/01/02 02:58:00;;;;;;;26.15;6.57;;;13.00;99.90;;;;;;5016803;28;20101;-71
2023/01/02 03:00:26;;;;;;;25.67;7.93;;;13.00;99.90;;;;;;5018987;28;20053;-72
2023/01/02 03:02:52;;;;;;;25.20;6.93;;;13.00;99.90;;;;;;5015840;28;20061;-72
2023/01/02 03:05:30;;;;;;;29.00;7.43;;;13.00;99.90;;;;;;5020089;28;20022;-73
2023/01/02 03:08:07;;;;;;;14.20;6.45;;;13.00;99.90;;;;;;5014154;28;20018;-74
2023/01/02 03:10:48;;;;;;;23.55;6.55;;;13.00;99.90;;;;;;5016067;28;20022;-72
2023/01/02 03:13:33;;;;;;;21.00;7.32;;;13.00;99.90;;;;;;5007741;28;20022;-72
2023/01/02 03:16:02;;;;;;;20.65;6.57;;;13.00;99.90;;;;;;5018306;28;20056;-73
2023/01/02 03:18:37;;;;;;;37.03;7.32;;;13.00;99.90;;;;;;5008102;28;20112;-72
2023/01/02 03:21:26;;;;;;;19.08;6.63;;;13.00;99.90;;;;;;5013622;28;20029;-72
2023/01/02 03:23:55;;;;;;;21.63;6.28;;;13.00;99.90;;;;;;5013073;28;20022;-73
2023/01/02 03:26:26;;;;;;;18.40;6.90;;;13.00;99.90;;;;;;5017283;28;20050;-73
2023/01/02 03:28:57;;;;;;;19.30;6.55;;;13.00;99.90;;;;;;5014674;28;20048;-72
2023/01/02 03:31:24;;;;;;;17.92;6.43;;;12.90;99.90;;;;;;5017535;28;20036;-72
2023/01/02 03:34:07;;;;;;;25.13;6.72;;;13.00;99.90;;;;;;5010606;28;20061;-73
2023/01/02 03:36:33;;;;;;;17.73;7.75;;;13.00;99.90;;;;;;5016166;28;20116;-72
2023/01/02 03:39:27;;;;;;;28.75;6.05;;;13.00;99.90;;;;;;4991018;28;20027;-72
2023/01/02 03:41:58;;;;;;;23.27;7.38;;;12.90;99.90;;;;;;5011298;28;20518;-72
2023/01/02 03:44:29;;;;;;;20.73;6.50;;;12.90;99.90;;;;;;5014328;28;20056;-72
2023/01/02 03:47:22;;;;;;;25.33;6.70;;;12.90;99.90;;;;;;5006388;28;20061;-71
2023/01/02 03:49:52;;;;;;;20.65;6.30;;;12.80;99.90;;;;;;5013128;28;20014;-72
2023/01/02 03:52:18;;;;;;;30.42;7.57;;;12.80;99.90;;;;;;5014533;28;20037;-71
2023/01/02 03:54:45;;;;;;;18.80;7.18;;;12.80;99.90;;;;;;5016904;28;20018;-72
2023/01/02 03:57:45;;;;;;;24.13;6.75;;;12.80;99.90;;;;;;4998259;28;20045;-72
2023/01/02 04:00:16;;;;;;;17.17;5.40;;;12.80;99.90;;;;;;5013994;28;20045;-72
2023/01/02 04:03:05;;;;;;;20.38;6.50;;;12.80;99.90;;;;;;4999111;28;20025;-71
2023/01/02 04:05:42;;;;;;;20.35;7.35;;;12.80;99.90;;;;;;5010999;28;20025;-72
2023/01/02 04:08:23;;;;;;;26.60;7.80;;;12.80;99.90;;;;;;5012973;28;20383;-72
2023/01/02 04:10:54;;;;;;;22.58;7.97;;;12.80;99.90;;;;;;5018780;28;20021;-72
2023/01/02 04:13:31;;;;;;;18.48;6.43;;;12.80;99.90;;;;;;5013415;28;20033;-73
2023/01/02 04:15:59;;;;;;;16.75;6.75;;;12.90;99.90;;;;;;5017704;28;20045;-73
2023/01/02 04:18:34;;;;;;;18.00;6.22;;;12.90;99.90;;;;;;5011310;28;20030;-73
2023/01/02 04:21:07;;;;;;;23.70;7.63;;;12.90;99.90;;;;;;5012890;28;20014;-73
2023/01/02 04:23:44;;;;;;;24.80;7.35;;;12.90;99.90;;;;;;4994771;28;20098;-73
2023/01/02 04:26:23;;;;;;;15.65;6.18;;;13.00;99.90;;;;;;5016317;28;20069;-74
2023/01/02 04:28:49;;;;;;;23.13;6.20;;;13.00;99.90;;;;;;5011307;28;20025;-73
2023/01/02 04:31:21;;;;;;;16.25;5.72;;;13.00;99.90;;;;;;5016275;28;20018;-74
2023/01/02 04:33:54;;;;;;;19.10;5.65;;;13.00;99.90;;;;;;5010310;28;20458;-73
2023/01/02 04:36:21;;;;;;;19.42;7.60;;;12.90;99.90;;;;;;4998768;28;20394;-72
2023/01/02 04:38:47;;;;;;;21.40;5.82;;;12.90;99.90;;;;;;5007812;28;20434;-73
2023/01/02 04:41:27;;;;;;;24.02;7.10;;;12.90;99.90;;;;;;5016415;28;20067;-73
2023/01/02 04:43:56;;;;;;;17.75;6.90;;;12.90;99.90;;;;;;5010746;28;20029;-72
2023/01/02 04:46:23;;;;;;;21.17;6.55;;;13.00;99.90;;;;;;5015305;28;20026;-72
2023/01/02 04:48:49;;;;;;;21.77;6.95;;;13.00;99.90;;;;;;4997347;28;20030;-73
2023/01/02 04:51:16;;;;;;;20.33;6.95;;;13.00;99.90;;;;;;4998190;28;20033;-73
2023/01/02 04:53:42;;;;;;;16.70;6.72;;;13.00;99.90;;;;;;5016156;28;20026;-72
2023/01/02 04:56:07;;;;;;;22.38;6.43;;;13.00;99.90;;;;;;4998671;28;20552;-72
2023/01/02 04:58:33;;;;;;;19.50;7.50;;;13.10;99.90;;;;;;5017538;28;20030;-72
2023/01/02 05:00:59;;;;;;;19.58;6.13;;;13.10;99.90;;;;;;4998799;28;20096;-72
2023/01/02 05:03:25;;;;;;;20.05;7.78;;;13.10;99.90;;;;;;5014866;28;20034;-72
2023/01/02 05:05:59;;;;;;;24.83;6.95;;;13.10;99.90;;;;;;5017817;28;20026;-72
2023/01/02 05:08:24;;;;;;;20.73;6.20;;;13.10;99.90;;;;;;4996741;28;20057;-72
2023/01/02 05:10:50;;;;;;;22.65;6.97;;;13.20;99.90;;;;;;5017738;28;20025;-72
2023/01/02 05:13:16;;;;;;;19.83;6.45;;;13.10;99.90;;;;;;5006291;28;20057;-72
2023/01/02 05:15:42;;;;;;;19.98;7.13;;;13.20;99.90;;;;;;5017732;28;20022;-72
2023/01/02 05:18:08;;;;;;;18.92;6.50;;;13.10;99.90;;;;;;5009196;28;20479;-72
2023/01/02 05:20:34;;;;;;;17.65;5.90;;;13.10;99.90;;;;;;5000023;28;20025;-72
2023/01/02 05:25:44;;;;;;;20.45;5.28;;;13.10;99.90;;;;;;5016710;28;20125;-72
2023/01/02 05:28:10;;;;;;;20.20;6.80;;;13.10;99.90;;;;;;4996104;28;20061;-72
2023/01/02 05:30:38;;;;;;;14.23;5.72;;;13.20;99.90;;;;;;4999093;28;20112;-72
2023/01/02 05:33:03;;;;;;;17.45;6.97;;;13.20;99.90;;;;;;5001967;28;20041;-72
2023/01/02 05:35:29;;;;;;;19.15;6.80;;;13.20;99.90;;;;;;5016758;28;20104;-71
2023/01/02 05:37:55;;;;;;;16.95;6.00;;;13.20;99.90;;;;;;5008519;28;20041;-71
2023/01/02 05:40:21;;;;;;;21.20;6.75;;;13.20;99.90;;;;;;5015526;28;20033;-72
2023/01/02 05:42:47;;;;;;;18.02;6.82;;;13.20;99.90;;;;;;5007922;28;20068;-73
2023/01/02 05:45:12;;;;;;;25.58;6.07;;;13.20;99.90;;;;;;5005356;28;20018;-73
2023/01/02 05:47:38;;;;;;;17.70;7.07;;;13.20;99.90;;;;;;5012033;28;20030;-73
2023/01/02 05:50:05;;;;;;;22.35;8.05;;;13.20;99.90;;;;;;4999167;28;20022;-73
2023/01/02 05:52:30;;;;;;;15.52;5.82;;;13.20;99.90;;;;;;5011411;28;20113;-72
2023/01/02 05:54:56;;;;;;;18.88;6.55;;;13.20;99.90;;;;;;5013999;28;20056;-72
2023/01/02 05:57:22;;;;;;;21.58;7.30;;;13.20;99.90;;;;;;5012890;28;20084;-72
2023/01/02 05:59:48;;;;;;;19.73;7.40;;;13.20;99.90;;;;;;5015258;28;20076;-72
2023/01/02 06:02:14;;;;;;;19.48;8.05;;;13.20;99.90;;;;;;5012434;28;20029;-73
2023/01/02 06:04:40;;;;;;;14.20;6.13;;;13.10;99.90;;;;;;5015294;28;20116;-74
2023/01/02 06:07:06;;;;;;;24.50;6.97;;;13.10;99.90;;;;;;4996110;28;20025;-72
2023/01/02 06:09:31;;;;;;;25.95;7.15;;;13.10;99.90;;;;;;5012801;28;20093;-73
2023/01/02 06:11:57;;;;;;;15.52;6.68;;;13.10;99.90;;;;;;4995343;28;20041;-72
2023/01/02 06:14:23;;;;;;;25.08;7.63;;;13.10;99.90;;;;;;5011534;28;20101;-73
2023/01/02 06:16:49;;;;;;;17.10;6.13;;;13.10;99.90;;;;;;4993515;28;20030;-72
2023/01/02 06:19:15;;;;;;;17.40;7.38;;;13.10;99.90;;;;;;5012535;28;20032;-73
2023/01/02 06:21:41;;;;;;;19.55;7.38;;;13.10;99.90;;;;;;4993515;28;20057;-73
2023/01/02 06:24:07;;;;;;;21.25;6.88;;;13.10;99.90;;;;;;5010008;28;20735;-73
2023/01/02 06:26:33;;;;;;;17.17;6.68;;;13.10;99.90;;;;;;4963843;28;1369547;-73
2023/01/02 06:28:58;;;;;;;24.15;6.07;;;13.20;99.90;;;;;;5006651;28;20080;-72
2023/01/02 06:31:26;;;;;;;26.08;7.00;;;13.10;99.90;;;;;;4995586;28;20026;-73
2023/01/02 06:34:00;;;;;;;20.70;6.70;;;13.20;99.90;;;;;;5008073;28;20113;-73
2023/01/02 06:36:29;;;;;;;17.52;7.15;;;13.20;99.90;;;;;;5014288;28;20033;-73
2023/01/02 06:38:56;;;;;;;22.05;6.63;;;13.10;99.90;;;;;;4990598;28;20026;-73
2023/01/02 06:41:22;;;;;;;23.20;6.75;;;13.10;99.90;;;;;;4995706;28;20033;-73
2023/01/02 06:43:49;;;;;;;23.90;6.70;;;13.20;99.90;;;;;;4994600;28;20030;-72
2023/01/02 06:46:20;;;;;;;14.68;6.53;;;13.20;99.90;;;;;;5014401;28;20154;-73
2023/01/02 06:48:46;;;;;;;21.35;6.13;;;13.20;99.90;;;;;;5011832;28;20478;-72
2023/01/02 06:51:17;;;;;;;15.07;7.50;;;13.20;99.90;;;;;;4996664;28;20113;-72
2023/01/02 06:53:43;;;;;;;18.17;7.60;;;13.20;99.90;;;;;;5014369;28;20030;-73
2023/01/02 06:56:11;;;;;;;16.13;7.38;;;13.20;99.90;;;;;;5014688;28;20058;-73
2023/01/02 06:58:37;;;;;;;23.08;6.90;;;13.20;99.90;;;;;;5007141;28;20065;-73
2023/01/02 07:01:09;;;;;;;23.58;8.15;;;13.30;99.90;;;;;;5015423;28;20045;-72
2023/01/02 07:03:35;;;;;;;19.05;7.00;;;13.30;99.90;;;;;;5006068;28;20510;-72
2023/01/02 07:06:03;;;;;;;21.10;7.07;;;13.30;99.90;;;;;;4997448;28;20444;-72
2023/01/02 07:08:29;;;;;;;19.30;7.63;;;13.30;99.90;;;;;;5007922;28;20097;-72
2023/01/02 07:11:04;;;;;;;24.30;6.88;;;13.30;99.90;;;;;;5016302;28;20034;-72
2023/01/02 07:13:30;;;;;;;21.27;7.10;;;13.30;99.90;;;;;;4999817;28;20426;-74
2023/01/02 07:15:55;;;;;;;22.73;8.18;;;13.30;99.90;;;;;;4994965;28;20049;-73
2023/01/02 07:18:21;;;;;;;21.75;7.15;;;13.40;99.90;;;;;;4995258;28;20026;-73
2023/01/02 07:20:53;;;;;;;24.85;7.57;;;13.30;99.90;;;;;;4980513;28;20126;-72
2023/01/02 07:23:19;;;;;;;22.27;7.53;;;13.40;99.90;;;;;;4984311;28;20036;-72
2023/01/02 07:25:50;;;;;;;35.40;17.83;;;13.30;99.90;;;;;;5012114;28;20133;-73
2023/01/02 07:28:15;;;;;;;;;;;13.30;99.90;;;;;;5009872;28;20026;-73
2023/01/02 07:30:42;;;;;;;25.20;7.97;;;13.30;99.90;;;;;;5014449;28;19938;-73
2023/01/02 07:33:07;;;;;;;26.23;8.32;;;13.30;99.90;;;;;;5010940;28;20057;-73
2023/01/02 07:35:34;;;;;;;23.25;9.63;;;13.30;99.90;;;;;;4994541;28;20030;-73
2023/01/02 07:38:00;;;;;;;20.63;10.80;;;13.30;99.90;;;;;;4996437;28;20037;-73
2023/01/02 07:40:26;;;;;;;42.90;31.42;;;13.30;99.90;;;;;;5001668;28;20026;-72
2023/01/02 07:42:53;;;;;;;17.00;9.65;;;13.30;99.90;;;;;;5013110;28;20111;-73
2023/01/02 07:45:19;;;;;;;61.03;40.85;;;13.30;99.90;;;;;;5015116;28;20026;-73
2023/01/02 07:47:45;;;;;;;26.52;12.10;;;13.30;99.90;;;;;;5014425;28;20450;-73
2023/01/02 07:50:11;;;;;;;19.67;8.05;;;13.20;99.90;;;;;;5016614;28;20018;-73
2023/01/02 07:52:41;;;;;;;21.90;7.65;;;13.30;99.90;;;;;;5015111;28;20053;-73
2023/01/02 07:55:07;;;;;;;23.67;7.85;;;13.30;99.90;;;;;;5016469;28;20022;-72
2023/01/02 07:57:33;;;;;;;18.02;8.45;;;13.30;99.90;;;;;;5015479;28;20033;-73
2023/01/02 07:59:59;;;;;;;20.67;7.47;;;13.30;99.90;;;;;;5018500;28;20018;-73
2023/01/02 08:02:25;;;;;;;20.65;7.20;;;13.30;99.90;;;;;;5015698;28;20080;-74
2023/01/02 08:04:52;;;;;;;22.58;7.45;;;13.30;99.90;;;;;;5016542;28;20030;-74
2023/01/02 08:07:22;;;;;;;21.05;6.95;;;13.30;99.90;;;;;;4992748;28;20520;-74
2023/01/02 08:09:48;;;;;;;33.60;8.43;;;13.30;99.90;;;;;;5001280;28;20036;-72
2023/01/02 08:12:14;;;;;;;21.55;7.53;;;13.40;99.90;;;;;;5014212;28;20030;-73
2023/01/02 08:14:40;;;;;;;31.65;13.45;;;13.40;99.90;;;;;;4997185;28;20018;-73
2023/01/02 08:17:06;;;;;;;15.82;8.43;;;13.30;99.90;;;;;;5012878;28;20471;-73
2023/01/02 08:19:32;;;;;;;29.50;10.02;;;13.30;99.90;;;;;;5015342;28;20057;-72
2023/01/02 08:21:58;;;;;;;869.63;425.15;;;13.20;99.90;;;;;;5014367;28;20034;-73
2023/01/02 08:24:23;;;;;;;34.40;11.35;;;13.30;99.90;;;;;;5001042;28;20029;-72
2023/01/02 08:26:49;;;;;;;23.60;9.07;;;13.20;99.90;;;;;;4994325;28;20088;-76
2023/01/02 08:29:15;;;;;;;26.27;9.40;;;13.30;99.90;;;;;;5021555;28;20032;-75
2023/01/02 08:31:41;;;;;;;16.92;8.10;;;13.40;99.90;;;;;;5017132;28;20458;-75
2023/01/02 08:34:07;;;;;;;177.88;70.22;;;13.40;99.90;;;;;;5016344;28;20018;-75
2023/01/02 08:36:33;;;;;;;34.05;11.55;;;13.40;99.90;;;;;;5017164;28;20486;-74
2023/01/02 08:38:58;;;;;;;23.33;8.35;;;13.40;99.90;;;;;;5018905;28;20022;-75
2023/01/02 08:41:39;;;;;;;355.95;152.40;;;13.40;99.90;;;;;;5020617;28;20042;-75
2023/01/02 08:44:05;;;;;;;31.80;13.65;;;13.40;99.90;;;;;;5016819;28;20025;-75
2023/01/02 08:46:33;;;;;;;21.83;9.05;;;13.40;99.90;;;;;;4997995;28;20026;-76
2023/01/02 08:48:58;;;;;;;53.42;23.73;;;13.40;99.90;;;;;;5020741;28;20015;-75
2023/01/02 08:51:25;;;;;;;25.05;8.45;;;13.40;99.90;;;;;;5019679;28;20029;-75
2023/01/02 08:53:51;;;;;;;16.08;7.72;;;13.40;99.90;;;;;;5001987;28;20032;-75
2023/01/02 08:56:18;;;;;;;25.17;9.07;;;13.40;99.90;;;;;;5017236;28;20453;-75
2023/01/02 08:58:47;;;;;;;24.98;9.05;;;13.40;99.90;;;;;;5002729;28;20025;-72
2023/01/02 09:01:13;;;;;;;17.27;7.13;;;13.40;99.90;;;;;;5019550;28;20034;-73
2023/01/02 09:03:39;;;;;;;17.45;7.05;;;13.30;99.90;;;;;;4997849;28;20030;-73
2023/01/02 09:06:05;;;;;;;22.52;7.00;;;13.30;99.90;;;;;;5027106;28;20029;-73
2023/01/02 09:08:31;;;;;;;24.92;10.23;;;13.20;99.90;;;;;;5022414;28;20025;-73
2023/01/02 09:10:57;;;;;;;13.32;5.40;;;13.20;99.90;;;;;;5007059;28;20021;-73
2023/01/02 09:13:22;;;;;;;25.25;6.65;;;13.10;99.90;;;;;;4999446;28;20017;-74
2023/01/02 09:15:48;;;;;;;18.48;6.53;;;13.20;99.90;;;;;;5021164;28;20481;-74
2023/01/02 09:18:14;;;;;;;16.30;6.20;;;13.20;99.90;;;;;;5020332;28;20033;-78
2023/01/02 09:20:40;;;;;;;18.50;6.95;;;13.20;99.90;;;;;;5022470;28;20026;-78
2023/01/02 09:23:06;;;;;;;22.75;6.00;;;13.20;99.90;;;;;;5017169;28;20025;-76
2023/01/02 09:25:32;;;;;;;17.63;6.53;;;13.30;99.90;;;;;;5002108;28;20511;-77
2023/01/02 09:27:58;;;;;;;16.88;5.88;;;13.30;99.90;;;;;;5019288;28;20014;-79
2023/01/02 09:30:23;;;;;;;19.55;6.63;;;13.40;99.90;;;;;;5024315;28;20054;-78
2023/01/02 09:32:49;;;;;;;16.90;6.50;;;13.40;99.90;;;;;;5012940;28;20021;-78
2023/01/02 09:35:16;;;;;;;19.45;7.25;;;13.40;99.90;;;;;;5001196;28;20097;-78
2023/01/02 09:37:42;;;;;;;134.70;74.32;;;13.50;99.90;;;;;;5015755;28;20022;-79
2023/01/02 09:40:10;;;;;;;29.65;12.52;;;13.40;99.90;;;;;;5003096;28;20022;-79
2023/01/02 09:42:36;;;;;;;49.35;23.50;;;13.40;99.90;;;;;;5014401;28;20052;-78
2023/01/02 09:45:04;;;;;;;31.13;15.73;;;13.40;99.90;;;;;;5005508;28;20052;-78
2023/01/02 09:47:31;;;;;;;58.45;24.88;;;13.40;99.90;;;;;;5012192;28;20030;-78
2023/01/02 09:50:02;;;;;;;87.57;35.00;;;13.40;99.90;;;;;;5005633;28;20079;-78
2023/01/02 09:52:33;;;;;;;31.23;19.40;;;13.40;99.90;;;;;;4990099;28;20117;-79
2023/01/02 09:55:00;;;;;;;29.55;18.23;;;13.40;99.90;;;;;;5001618;28;20081;-78
2023/01/02 09:57:26;;;;;;;167.38;52.58;;;13.40;99.90;;;;;;4993834;28;20038;-78
2023/01/02 10:00:14;;;;;;;58.55;23.20;;;13.40;99.90;;;;;;5006738;28;20375;-78
2023/01/02 10:02:58;;;;;;;148.75;59.78;;;13.50;99.90;;;;;;5003173;28;20034;-80
2023/01/02 10:05:46;;;;;;;19.88;6.03;;;13.40;99.90;;;;;;5014509;28;20033;-77
2023/01/02 10:08:23;;;;;;;20.58;7.05;;;13.40;99.90;;;;;;5015121;28;20019;-77
2023/01/02 10:11:22;;;;;;;16.15;6.15;;;13.50;99.90;;;;;;5024140;28;20028;-77
2023/01/02 10:13:59;;;;;;;15.13;6.82;;;13.50;99.90;;;;;;4995498;28;20064;-78
2023/01/02 10:16:30;;;;;;;13.70;5.40;;;13.50;99.90;;;;;;5018065;28;20033;-77
2023/01/02 10:19:00;;;;;;;23.30;5.88;;;13.50;99.90;;;;;;5010142;28;20160;-77
2023/01/02 10:21:33;;;;;;;18.92;6.68;;;13.50;99.90;;;;;;5016953;28;20417;-78
2023/01/02 10:24:20;;;;;;;10.45;5.22;;;13.50;99.90;;;;;;5012788;28;20160;-80
2023/01/02 10:26:51;;;;;;;14.45;6.97;;;13.40;99.90;;;;;;5000447;28;20056;-78
2023/01/02 10:29:36;;;;;;;9.77;5.45;;;13.40;99.90;;;;;;5001078;28;20056;-79
2023/01/02 10:32:21;;;;;;;21.17;8.07;;;13.30;99.90;;;;;;5017434;28;20058;-78
2023/01/02 10:35:05;;;;;;;19.73;7.85;;;13.30;99.90;;;;;;4999574;28;20026;-79
2023/01/02 10:37:31;;;;;;;11.60;5.68;;;13.30;99.90;;;;;;4993277;28;20414;-83
2023/01/02 10:39:58;;;;;;;13.35;6.28;;;13.30;99.90;;;;;;5000871;28;20483;-79
2023/01/02 10:42:24;;;;;;;19.23;6.40;;;13.20;99.90;;;;;;5001248;28;20387;-78
2023/01/02 10:44:51;;;;;;;16.58;6.10;;;13.20;99.90;;;;;;5022156;28;20017;-79
2023/01/02 10:47:35;;;;;;;12.75;6.80;;;13.20;99.90;;;;;;4996925;28;20508;-78
2023/01/02 10:50:04;;;;;;;30.02;13.57;;;13.20;99.90;;;;;;5019256;28;20018;-79
2023/01/02 10:52:38;;;;;;;31.05;13.10;;;13.20;99.90;;;;;;5014020;28;20029;-79
2023/01/02 10:55:04;;;;;;;21.63;7.35;;;13.10;99.90;;;;;;5019595;28;20071;-78
2023/01/02 10:57:40;;;;;;;20.48;8.13;;;13.10;99.90;;;;;;5014061;28;20041;-78
2023/01/02 11:00:07;;;;;;;26.30;14.63;;;13.20;99.90;;;;;;5003091;28;20057;-79
2023/01/02 11:02:39;;;;;;;28.77;10.73;;;13.10;99.90;;;;;;5011622;28;20116;-80
2023/01/02 11:05:16;;;;;;;14.45;6.60;;;13.20;99.90;;;;;;5015345;28;20029;-79
2023/01/02 11:07:47;;;;;;;17.50;7.00;;;13.10;99.90;;;;;;5013539;28;20033;-79
2023/01/02 11:10:32;;;;;;;13.82;7.22;;;13.10;99.90;;;;;;5024031;28;20110;-79
2023/01/02 11:13:03;;;;;;;14.20;7.82;;;13.10;99.90;;;;;;5021870;28;20037;-79
2023/01/02 11:15:33;;;;;;;19.15;7.32;;;13.10;99.90;;;;;;5022369;28;20481;-79
2023/01/02 11:18:01;;;;;;;16.27;6.25;;;13.10;99.90;;;;;;5004368;28;20034;-79
2023/01/02 11:20:30;;;;;;;16.10;6.50;;;13.10;99.90;;;;;;5000154;28;20044;-79
2023/01/02 11:23:00;;;;;;;14.52;6.03;;;13.10;99.90;;;;;;5023618;28;20033;-79
2023/01/02 11:25:40;;;;;;;11.60;4.75;;;13.10;99.90;;;;;;5005119;28;20053;-80
2023/01/02 11:28:14;;;;;;;8.07;4.38;;;13.10;99.90;;;;;;5014549;28;20034;-79
2023/01/02 11:30:52;;;;;;;15.85;5.00;;;13.00;99.90;;;;;;4999678;28;20049;-79
2023/01/02 11:33:20;;;;;;;10.55;5.45;;;13.00;99.90;;;;;;5020346;28;20025;-78
2023/01/02 11:36:04;;;;;;;11.18;5.50;;;13.00;99.90;;;;;;5004810;28;20453;-78
2023/01/02 11:38:50;;;;;;;9.43;4.35;;;13.00;99.90;;;;;;5006384;28;20097;-79
2023/01/02 11:44:46;;;;;;;8.80;4.13;;;12.90;99.90;;;;;;5021192;28;20121;-78
2023/01/02 11:47:14;;;;;;;13.15;4.68;;;12.90;99.90;;;;;;5012232;28;20030;-78
2023/01/02 11:49:45;;;;;;;10.07;4.55;;;12.80;99.90;;;;;;5027509;28;20030;-79
2023/01/02 11:52:22;;;;;;;10.88;3.80;;;12.80;99.90;;;;;;5019992;28;20042;-78
2023/01/02 11:55:09;;;;;;;6.53;4.05;;;12.80;99.90;;;;;;5021085;28;20026;-79
2023/01/02 11:57:56;;;;;;;8.82;4.03;;;12.70;99.90;;;;;;5023271;28;20057;-78
2023/01/02 12:00:28;;;;;;;6.97;4.40;;;12.70;99.90;;;;;;5022922;28;20116;-78
2023/01/02 12:03:04;;;;;;;7.15;4.25;;;12.70;99.90;;;;;;5022222;28;20113;-78
2023/01/02 12:05:55;;;;;;;12.00;4.78;;;12.70;99.90;;;;;;5020990;28;20022;-78
2023/01/02 12:08:34;;;;;;;8.13;5.30;;;12.80;99.90;;;;;;5022047;28;20021;-78
2023/01/02 12:11:47;;;;;;;7.82;3.08;;;12.80;99.90;;;;;;5010691;28;20025;-78
2023/01/02 12:14:13;;;;;;;10.95;3.70;;;12.80;99.90;;;;;;5017388;28;20038;-78
2023/01/02 12:17:14;;;;;;;7.07;3.97;;;12.90;99.90;;;;;;5019762;28;20036;-78
2023/01/02 12:20:05;;;;;;;10.70;3.75;;;12.90;99.90;;;;;;5015635;28;20026;-78
2023/01/02 12:22:56;;;;;;;7.15;3.40;;;13.00;99.90;;;;;;5006842;28;20037;-79
2023/01/02 12:25:39;;;;;;;6.70;4.00;;;13.10;99.90;;;;;;5016934;28;20060;-78
2023/01/02 12:28:17;;;;;;;9.88;3.50;;;13.10;99.90;;;;;;5003501;28;20086;-78
2023/01/02 12:31:12;;;;;;;8.27;3.28;;;13.10;99.90;;;;;;4998803;28;20482;-79
2023/01/02 12:33:53;;;;;;;4.32;2.72;;;13.10;99.90;;;;;;5019596;28;20030;-78
2023/01/02 12:36:25;;;;;;;5.07;2.97;;;13.10;99.90;;;;;;4993219;28;20053;-79
2023/01/02 12:39:15;;;;;;;6.60;3.00;;;13.00;99.90;;;;;;5010580;28;20129;-79
2023/01/02 12:42:38;;;;;;;6.68;3.10;;;13.00;99.90;;;;;;5010817;28;20090;-78
2023/01/02 12:45:13;;;;;;;5.18;2.33;;;13.10;99.90;;;;;;4933316;28;20078;-78
2023/01/02 12:47:57;;;;;;;4.97;2.83;;;13.00;99.90;;;;;;4957482;28;20118;-81
2023/01/02 12:50:34;;;;;;;6.47;2.80;;;13.00;99.90;;;;;;4982859;28;20062;-80
2023/01/02 12:53:30;;;;;;;5.47;2.60;;;13.00;99.90;;;;;;4998071;28;20405;-82
2023/01/02 12:56:02;;;;;;;4.93;2.90;;;13.00;99.90;;;;;;4998803;28;20030;-79
2023/01/02 12:58:44;;;;;;;4.68;2.88;;;13.00;99.90;;;;;;5014211;28;20041;-80
2023/01/02 13:01:25;;;;;;;3.97;2.63;;;13.00;99.90;;;;;;5015384;28;20469;-80
2023/01/02 13:04:19;;;;;;;10.07;3.33;;;12.90;99.90;;;;;;4998034;28;20029;-80
2023/01/02 13:06:53;;;;;;;6.88;3.72;;;12.90;99.90;;;;;;4989324;28;20490;-79